TimeCST,TemperatureF,Dew PointF,Humidity,Sea Level PressureIn,VisibilityMPH,Wind Direction,Wind SpeedMPH,Gust SpeedMPH,PrecipitationIn,Events,Conditions,WindDirDegrees,DateUTC
12:53 AM,33.1,32.0,96,30.40,7.0,Calm,Calm,-,N/A,,Clear,0,2010-01-02 06:53:00
1:53 AM,32.0,30.9,96,30.40,3.0,Calm,Calm,-,N/A,,Clear,0,2010-01-02 07:53:00
2:27 AM,30.2,30.2,100,30.38,1.8,Calm,Calm,-,N/A,,Clear,0,2010-01-02 08:27:00
2:37 AM,30.2,30.2,100,30.38,7.0,Calm,Calm,-,N/A,,Clear,0,2010-01-02 08:37:00
2:53 AM,32.0,30.9,96,30.40,7.0,Calm,Calm,-,N/A,,Clear,0,2010-01-02 08:53:00
3:53 AM,30.9,30.0,96,30.40,7.0,Calm,Calm,-,N/A,,Clear,0,2010-01-02 09:53:00
4:53 AM,30.9,28.9,92,30.39,6.0,Calm,Calm,-,N/A,,Clear,0,2010-01-02 10:53:00
5:53 AM,30.9,28.9,92,30.39,5.0,Calm,Calm,-,N/A,,Clear,0,2010-01-02 11:53:00
6:19 AM,28.4,28.4,100,30.38,2.5,Calm,Calm,-,N/A,,Clear,0,2010-01-02 12:19:00
6:26 AM,30.2,28.4,93,30.38,5.0,Calm,Calm,-,N/A,,Clear,0,2010-01-02 12:26:00
6:53 AM,30.0,28.0,92,30.40,6.0,Calm,Calm,-,N/A,,Clear,0,2010-01-02 12:53:00
7:53 AM,30.9,30.0,96,30.41,4.0,Calm,Calm,-,N/A,,Clear,0,2010-01-02 13:53:00
8:53 AM,37.0,33.1,86,30.43,7.0,NE,3.5,-,N/A,,Clear,50,2010-01-02 14:53:00
9:53 AM,41.0,33.1,73,30.43,9.0,East,4.6,-,N/A,,Clear,90,2010-01-02 15:53:00
10:53 AM,44.1,32.0,63,30.43,10.0,East,6.9,-,N/A,,Clear,90,2010-01-02 16:53:00
11:53 AM,46.0,30.9,56,30.40,10.0,Calm,Calm,-,N/A,,Clear,0,2010-01-02 17:53:00
12:53 PM,48.9,32.0,52,30.36,10.0,Variable,3.5,-,N/A,,Clear,0,2010-01-02 18:53:00
1:53 PM,48.9,30.9,50,30.34,10.0,Calm,Calm,-,N/A,,Clear,0,2010-01-02 19:53:00
2:53 PM,50.0,30.9,48,30.32,10.0,East,3.5,-,N/A,,Clear,90,2010-01-02 20:53:00
3:53 PM,50.0,32.0,50,30.32,10.0,Calm,Calm,-,N/A,,Clear,0,2010-01-02 21:53:00
4:53 PM,48.0,32.0,54,30.31,10.0,ENE,4.6,-,N/A,,Clear,70,2010-01-02 22:53:00
5:53 PM,44.1,30.9,60,30.32,10.0,ENE,4.6,-,N/A,,Clear,70,2010-01-02 23:53:00
6:53 PM,43.0,30.9,62,30.32,10.0,ENE,6.9,-,N/A,,Clear,70,2010-01-03 00:53:00
7:53 PM,39.9,30.9,70,30.32,10.0,NE,8.1,-,N/A,,Clear,50,2010-01-03 01:53:00
8:53 PM,39.0,30.0,70,30.33,10.0,ENE,6.9,-,N/A,,Clear,60,2010-01-03 02:53:00
9:53 PM,36.0,30.0,79,30.33,10.0,ENE,4.6,-,N/A,,Clear,60,2010-01-03 03:53:00
11:53 PM,34.0,28.9,82,30.32,9.0,ENE,4.6,-,N/A,,Clear,60,2010-01-03 05:53:00